Time;durP1;ratioP1;P1;durP2;ratioP2;P2;SDS_P1;SDS_P2;PMS_P1;PMS_P2;Temp;Humidity;BMP_temperature;BMP_pressure;BME280_temperature;BME280_humidity;BME280_pressure;Samples;Min_cycle;Max_cycle;Signal;HPM_P1;HPM_P2
2023/03/17 00:01:22;;;;;;;4.88;2.50;;;13.60;85.90;;;;;;5114243;28;20031;-66
2023/03/17 00:03:49;;;;;;;6.30;2.70;;;;;;;;;;5095647;28;20051;-66
2023/03/17 00:06:23;;;;;;;6.05;2.35;;;13.40;83.00;;;;;;5114107;28;20141;-66
2023/03/17 00:08:49;;;;;;;4.97;2.60;;;;;;;;;;5079196;28;20098;-65
2023/03/17 00:11:16;;;;;;;5.53;2.67;;;;;;;;;;5098403;28;20059;-65
2023/03/17 00:13:42;;;;;;;4.45;2.30;;;;;;;;;;5093299;28;20075;-65
2023/03/17 00:16:35;;;;;;;4.75;2.15;;;13.20;81.70;;;;;;5075484;28;20056;-66
2023/03/17 00:19:01;;;;;;;5.57;2.30;;;13.10;85.70;;;;;;5091235;28;20161;-65
2023/03/17 00:21:28;;;;;;;5.80;2.50;;;13.30;84.60;;;;;;5093529;28;20471;-63
2023/03/17 00:23:54;;;;;;;5.38;2.30;;;13.40;85.90;;;;;;5093766;28;20104;-63
2023/03/17 00:26:20;;;;;;;4.95;2.50;;;13.60;83.90;;;;;;5093078;28;20459;-63
2023/03/17 00:28:46;;;;;;;5.10;2.50;;;13.50;85.90;;;;;;5093717;28;20040;-65
2023/03/17 00:31:16;;;;;;;4.88;2.40;;;13.30;85.70;;;;;;5075304;28;20374;-65
2023/03/17 00:33:44;;;;;;;5.82;2.50;;;13.30;85.70;;;;;;5091824;28;20047;-66
2023/03/17 00:36:30;;;;;;;5.20;2.55;;;;;;;;;;5093317;28;20123;-65
2023/03/17 00:38:57;;;;;;;4.88;2.35;;;;;;;;;;5092690;28;20412;-66
2023/03/17 00:41:23;;;;;;;5.20;2.70;;;13.40;82.30;;;;;;5093233;28;20448;-66
2023/03/17 00:43:49;;;;;;;5.78;2.50;;;13.20;85.50;;;;;;5094136;28;20040;-62
2023/03/17 00:46:36;;;;;;;5.90;2.65;;;13.40;82.90;;;;;;5093490;28;20539;-63
2023/03/17 00:49:16;;;;;;;4.50;2.50;;;13.50;81.40;;;;;;5093141;28;20048;-63
2023/03/17 00:51:43;;;;;;;5.15;2.45;;;13.30;85.40;;;;;;5093001;28;20048;-65
2023/03/17 00:54:09;;;;;;;5.47;2.58;;;13.40;85.60;;;;;;5092769;28;20090;-65
2023/03/17 00:56:36;;;;;;;5.05;2.90;;;;;;;;;;5092801;28;20137;-65
2023/03/17 00:59:02;;;;;;;7.63;2.50;;;;;;;;;;5077223;28;20056;-65
2023/03/17 01:01:29;;;;;;;5.78;2.67;;;13.50;85.60;;;;;;5112419;28;20062;-65
2023/03/17 01:03:55;;;;;;;6.00;2.50;;;12.90;85.30;;;;;;5113300;28;20472;-65
2023/03/17 01:06:21;;;;;;;4.72;2.30;;;;;;;;;;5111764;28;20056;-65
2023/03/17 01:08:47;;;;;;;5.43;2.80;;;;;;;;;;5112866;28;20060;-65
2023/03/17 01:11:14;;;;;;;4.28;2.50;;;13.40;82.70;;;;;;5111668;28;20052;-66
2023/03/17 01:13:41;;;;;;;5.30;3.03;;;;;;;;;;5113191;28;20142;-66
2023/03/17 01:16:09;;;;;;;4.50;2.30;;;13.70;85.70;;;;;;5112912;28;20122;-65
2023/03/17 01:18:34;;;;;;;4.88;2.53;;;13.40;85.50;;;;;;5094043;28;20365;-65
2023/03/17 01:21:00;;;;;;;4.53;2.40;;;;;;;;;;5098705;28;20139;-65
2023/03/17 01:23:26;;;;;;;5.28;2.50;;;13.50;85.60;;;;;;5117133;28;20046;-65
2023/03/17 01:25:53;;;;;;;5.65;2.63;;;13.50;85.60;;;;;;5116896;28;20119;-63
2023/03/17 01:28:19;;;;;;;5.40;2.50;;;13.50;85.60;;;;;;5116104;28;20051;-64
2023/03/17 01:30:45;;;;;;;5.18;2.72;;;13.60;85.60;;;;;;5115689;28;20035;-61
2023/03/17 01:33:11;;;;;;;5.05;2.60;;;13.70;85.60;;;;;;5117600;28;20047;-63
2023/03/17 01:35:37;;;;;;;5.15;2.60;;;13.50;85.60;;;;;;5106979;28;20086;-62
2023/03/17 01:38:04;;;;;;;7.25;3.15;;;;;;;;;;5096909;28;20040;-62
2023/03/17 01:40:32;;;;;;;6.72;2.50;;;13.50;82.30;;;;;;5096935;28;20040;-62
2023/03/17 01:43:07;;;;;;;4.57;2.50;;;13.20;81.40;;;;;;5096989;28;20569;-63
2023/03/17 01:45:51;;;;;;;5.28;2.80;;;;;;;;;;5096731;28;20086;-64
2023/03/17 01:48:17;;;;;;;5.05;2.58;;;13.50;85.60;;;;;;5096865;28;20443;-62
2023/03/17 01:50:43;;;;;;;5.18;2.53;;;13.50;85.60;;;;;;5096203;28;20077;-63
2023/03/17 01:53:10;;;;;;;4.85;2.65;;;13.70;85.70;;;;;;5089065;28;20135;-63
2023/03/17 01:55:36;;;;;;;5.10;2.83;;;;;;;;;;5095078;28;20576;-60
2023/03/17 01:58:02;;;;;;;5.00;2.72;;;13.40;85.50;;;;;;5077879;28;20052;-62
2023/03/17 02:00:28;;;;;;;5.05;2.70;;;13.50;82.20;;;;;;5110181;28;20051;-62
2023/03/17 02:02:55;;;;;;;5.57;2.97;;;13.50;85.60;;;;;;5098462;28;20040;-63
2023/03/17 02:05:25;;;;;;;6.07;2.80;;;13.50;85.60;;;;;;5116804;28;20083;-62
2023/03/17 02:07:52;;;;;;;5.90;2.85;;;13.40;85.60;;;;;;5116603;28;20051;-62
2023/03/17 02:10:19;;;;;;;5.38;2.55;;;13.60;85.80;;;;;;5116280;28;20059;-62
2023/03/17 02:12:46;;;;;;;6.13;3.20;;;13.60;85.90;;;;;;5082017;28;20039;-63
2023/03/17 02:15:11;;;;;;;5.93;2.92;;;13.50;85.80;;;;;;5098457;28;20062;-63
2023/03/17 02:17:38;;;;;;;4.90;2.70;;;13.40;85.70;;;;;;5116259;28;20552;-63
2023/03/17 02:20:16;;;;;;;5.55;2.83;;;13.20;81.20;;;;;;5116592;28;20051;-63
2023/03/17 02:22:48;;;;;;;8.13;3.30;;;13.40;81.10;;;;;;5098219;28;20064;-62
2023/03/17 02:25:14;;;;;;;5.80;3.15;;;13.70;85.80;;;;;;5116529;28;20049;-63
2023/03/17 02:27:43;;;;;;;5.45;3.13;;;13.60;85.80;;;;;;5081477;28;20083;-63
2023/03/17 02:30:10;;;;;;;5.40;2.95;;;13.50;85.70;;;;;;5115745;28;20044;-62
2023/03/17 02:32:37;;;;;;;5.20;2.63;;;;;;;;;;5115029;28;20130;-63
2023/03/17 02:35:03;;;;;;;6.00;3.00;;;13.50;85.40;;;;;;5116014;28;20090;-63
2023/03/17 02:37:29;;;;;;;6.30;3.35;;;13.50;85.70;;;;;;5115621;28;20042;-62
2023/03/17 02:39:55;;;;;;;5.28;2.97;;;13.50;85.60;;;;;;5115521;28;20501;-62
2023/03/17 02:42:21;;;;;;;5.22;2.85;;;13.50;85.60;;;;;;5115525;28;20104;-63
2023/03/17 02:44:47;;;;;;;5.07;3.05;;;13.80;85.90;;;;;;5096672;28;20048;-62
2023/03/17 02:47:13;;;;;;;6.25;2.95;;;13.80;85.90;;;;;;5095809;28;20056;-62
2023/03/17 02:49:39;;;;;;;5.28;2.83;;;13.00;85.40;;;;;;5095732;28;20164;-63
2023/03/17 02:52:06;;;;;;;7.40;3.08;;;13.50;85.70;;;;;;5095530;28;20047;-63
2023/03/17 02:54:31;;;;;;;5.78;2.90;;;13.70;85.80;;;;;;5095288;28;20048;-62
2023/03/17 02:56:58;;;;;;;4.53;2.70;;;13.50;85.80;;;;;;5095403;28;20044;-62
2023/03/17 02:59:24;;;;;;;6.57;3.13;;;13.70;85.90;;;;;;5095546;28;20040;-62
2023/03/17 03:01:50;;;;;;;6.85;3.05;;;13.70;85.80;;;;;;5115400;28;20473;-62
2023/03/17 03:04:16;;;;;;;5.43;3.10;;;13.60;85.80;;;;;;5097513;28;20504;-62
2023/03/17 03:06:43;;;;;;;5.88;3.05;;;;;;;;;;5115771;28;20035;-63
2023/03/17 03:09:10;;;;;;;5.28;2.75;;;13.50;85.70;;;;;;5097415;28;20090;-62
2023/03/17 03:11:37;;;;;;;5.75;3.05;;;13.30;85.60;;;;;;5115082;28;20130;-62
2023/03/17 03:14:03;;;;;;;6.75;3.20;;;13.60;85.80;;;;;;5115291;28;20058;-62
2023/03/17 03:16:28;;;;;;;6.15;3.03;;;13.80;85.80;;;;;;5114791;28;20032;-63
2023/03/17 03:18:54;;;;;;;5.65;2.90;;;13.50;85.80;;;;;;5095063;28;20068;-62
2023/03/17 03:21:21;;;;;;;5.30;2.85;;;13.40;85.70;;;;;;5095211;28;20036;-62
2023/03/17 03:23:47;;;;;;;4.93;2.90;;;13.50;85.70;;;;;;5095003;28;20040;-62
2023/03/17 03:26:13;;;;;;;6.15;3.13;;;;;;;;;;5076426;28;20059;-63
2023/03/17 03:28:38;;;;;;;5.47;3.20;;;13.50;85.70;;;;;;5094606;28;20052;-63
2023/03/17 03:31:05;;;;;;;5.90;3.00;;;13.50;85.60;;;;;;5094477;28;20047;-63
2023/03/17 03:33:30;;;;;;;5.30;3.00;;;13.40;85.60;;;;;;5093228;28;20044;-62
2023/03/17 03:35:56;;;;;;;5.85;2.80;;;13.70;85.80;;;;;;5094429;28;20044;-62
2023/03/17 03:38:23;;;;;;;6.85;3.28;;;;;;;;;;5094387;28;20048;-62
2023/03/17 03:40:48;;;;;;;5.63;3.03;;;13.50;85.80;;;;;;5094654;28;20044;-63
2023/03/17 03:43:15;;;;;;;5.68;3.00;;;13.20;85.60;;;;;;5094044;28;20498;-63
2023/03/17 03:45:40;;;;;;;5.88;3.33;;;13.60;85.80;;;;;;5094291;28;20090;-62
2023/03/17 03:48:06;;;;;;;5.90;3.17;;;13.50;85.70;;;;;;5094482;28;20080;-62
2023/03/17 03:50:32;;;;;;;6.15;3.05;;;13.40;85.70;;;;;;5076294;28;20039;-63
2023/03/17 03:52:58;;;;;;;5.03;2.90;;;;;;;;;;5094183;28;20505;-64
2023/03/17 03:55:24;;;;;;;5.70;3.28;;;13.30;85.70;;;;;;5093989;28;20105;-63
2023/03/17 03:57:50;;;;;;;5.32;2.85;;;13.30;85.60;;;;;;5093684;28;20098;-63
2023/03/17 04:00:16;;;;;;;5.18;2.90;;;13.50;85.70;;;;;;5093684;28;20048;-62
2023/03/17 04:02:43;;;;;;;5.13;2.83;;;13.60;85.80;;;;;;5093875;28;20081;-66
2023/03/17 04:05:09;;;;;;;5.90;3.08;;;13.50;85.70;;;;;;5093562;28;20058;-63
2023/03/17 04:07:36;;;;;;;5.63;2.83;;;;;;;;;;5093687;28;20126;-62
2023/03/17 04:10:02;;;;;;;5.10;2.78;;;13.60;85.70;;;;;;5093649;28;20115;-62
2023/03/17 04:12:28;;;;;;;5.07;2.90;;;13.50;85.70;;;;;;5093828;28;20036;-62
2023/03/17 04:14:54;;;;;;;6.70;2.83;;;13.50;85.80;;;;;;5094019;28;20546;-63
2023/03/17 04:17:19;;;;;;;5.25;2.83;;;13.60;85.70;;;;;;5093498;28;20405;-61
2023/03/17 04:19:45;;;;;;;5.45;2.75;;;13.20;85.50;;;;;;5058546;28;20052;-68
2023/03/17 04:22:12;;;;;;;5.07;2.85;;;13.40;85.70;;;;;;5093592;28;20044;-67
2023/03/17 04:24:38;;;;;;;5.93;2.60;;;13.60;85.70;;;;;;5094575;28;20067;-62
2023/03/17 04:27:04;;;;;;;5.78;2.80;;;;;;;;;;5093719;28;20036;-63
2023/03/17 04:29:30;;;;;;;4.82;2.63;;;;;;;;;;5092701;28;20055;-63
2023/03/17 04:31:56;;;;;;;5.05;2.80;;;13.50;85.80;;;;;;5093562;28;20101;-62
2023/03/17 04:34:22;;;;;;;6.47;3.10;;;13.60;85.90;;;;;;5075600;28;20048;-62
2023/03/17 04:36:48;;;;;;;5.55;3.22;;;13.50;85.80;;;;;;5093858;28;20127;-62
2023/03/17 04:39:14;;;;;;;6.88;3.05;;;13.50;85.90;;;;;;5093802;28;20486;-62
2023/03/17 04:41:40;;;;;;;5.65;2.92;;;;;;;;;;5093800;28;20043;-62
2023/03/17 04:44:06;;;;;;;4.72;2.47;;;13.60;86.00;;;;;;5093738;28;20040;-61
2023/03/17 04:46:32;;;;;;;5.53;2.97;;;13.10;85.70;;;;;;5093507;28;20050;-62
2023/03/17 04:48:58;;;;;;;4.20;2.60;;;;;;;;;;5093833;28;20074;-62
2023/03/17 04:51:24;;;;;;;7.10;2.60;;;13.50;85.90;;;;;;5093649;28;20371;-62
2023/03/17 04:53:51;;;;;;;6.07;2.90;;;13.50;85.80;;;;;;5092670;28;20039;-62
2023/03/17 04:56:17;;;;;;;5.07;2.60;;;13.60;86.00;;;;;;5093491;28;20036;-62
2023/03/17 04:58:42;;;;;;;4.15;2.22;;;13.50;85.70;;;;;;5076562;28;20538;-61
2023/03/17 05:01:08;;;;;;;6.20;2.85;;;;;;;;;;5094816;28;20434;-61
2023/03/17 05:03:35;;;;;;;4.93;2.60;;;;;;;;;;5113362;28;20144;-62
2023/03/17 05:06:01;;;;;;;4.93;2.58;;;13.60;85.90;;;;;;5112422;28;20070;-62
2023/03/17 05:08:29;;;;;;;5.13;2.58;;;13.40;86.00;;;;;;5113945;28;20044;-62
2023/03/17 05:10:56;;;;;;;5.05;2.70;;;;;;;;;;5113644;28;20058;-63
2023/03/17 05:13:22;;;;;;;4.82;2.50;;;;;;;;;;5113793;28;20449;-67
2023/03/17 05:15:51;;;;;;;6.05;2.65;;;13.30;81.50;;;;;;5110762;28;20071;-62
2023/03/17 05:18:17;;;;;;;5.10;2.60;;;13.40;86.00;;;;;;5093037;28;20055;-62
2023/03/17 05:20:44;;;;;;;4.70;2.35;;;13.00;85.70;;;;;;5096399;28;20040;-61
2023/03/17 05:23:09;;;;;;;5.72;2.63;;;13.30;82.80;;;;;;5113637;28;20050;-62
2023/03/17 05:25:35;;;;;;;6.05;2.75;;;13.40;85.90;;;;;;5113389;28;20043;-62
2023/03/17 05:28:01;;;;;;;4.80;2.53;;;13.40;82.70;;;;;;5113669;28;20105;-63
2023/03/17 05:30:27;;;;;;;3.90;2.35;;;13.50;86.00;;;;;;5113282;28;20083;-62
2023/03/17 05:32:53;;;;;;;4.85;2.65;;;13.40;86.00;;;;;;5113612;28;20082;-62
2023/03/17 05:35:19;;;;;;;5.07;2.70;;;13.50;86.00;;;;;;5113172;28;20067;-62
2023/03/17 05:37:45;;;;;;;5.50;2.40;;;13.50;82.10;;;;;;5113526;28;20051;-63
2023/03/17 05:40:11;;;;;;;4.57;2.30;;;13.40;82.60;;;;;;5113508;28;20054;-62
2023/03/17 05:42:38;;;;;;;4.18;2.45;;;13.60;86.00;;;;;;5103464;28;20040;-62
2023/03/17 05:45:04;;;;;;;4.72;2.47;;;13.30;86.00;;;;;;5093218;28;20040;-61
2023/03/17 05:47:32;;;;;;;6.18;2.63;;;;;;;;;;5093213;28;20119;-61
2023/03/17 05:49:59;;;;;;;7.05;2.80;;;13.50;86.00;;;;;;5093048;28;20044;-62
2023/03/17 05:52:25;;;;;;;4.82;2.58;;;13.30;85.80;;;;;;5092680;28;20524;-61
2023/03/17 05:54:52;;;;;;;7.13;2.40;;;13.10;85.70;;;;;;5092764;28;20051;-62
2023/03/17 05:57:18;;;;;;;5.40;2.65;;;13.30;85.90;;;;;;5074683;28;20048;-62
2023/03/17 05:59:44;;;;;;;4.70;2.55;;;;;;;;;;5074842;28;20401;-65
2023/03/17 06:02:10;;;;;;;5.57;2.90;;;13.30;85.80;;;;;;5092929;28;20425;-62
2023/03/17 06:04:36;;;;;;;5.20;2.67;;;13.20;85.60;;;;;;5092931;28;20043;-63
2023/03/17 06:07:03;;;;;;;5.40;2.65;;;13.30;85.80;;;;;;5078302;28;20048;-62
2023/03/17 06:09:29;;;;;;;6.05;2.67;;;13.50;86.20;;;;;;5096760;28;20499;-62
2023/03/17 06:11:55;;;;;;;6.28;3.10;;;12.90;82.60;;;;;;5096162;28;20055;-62
2023/03/17 06:14:21;;;;;;;6.57;2.83;;;13.20;85.90;;;;;;5096320;28;20482;-61
2023/03/17 06:16:47;;;;;;;5.38;2.60;;;;;;;;;;5096199;28;20051;-62
2023/03/17 06:19:13;;;;;;;4.82;2.58;;;13.30;86.00;;;;;;5096448;28;20083;-62
2023/03/17 06:21:39;;;;;;;5.25;2.88;;;12.90;85.80;;;;;;5096217;28;20083;-62
2023/03/17 06:24:06;;;;;;;7.13;2.90;;;13.20;85.90;;;;;;5100293;28;20048;-61
2023/03/17 06:26:31;;;;;;;5.47;2.78;;;13.30;85.80;;;;;;5095585;28;20048;-62
2023/03/17 06:28:58;;;;;;;5.35;2.75;;;;;;;;;;5095809;28;20561;-63
2023/03/17 06:31:23;;;;;;;4.10;2.47;;;13.50;85.80;;;;;;5095688;28;20044;-63
2023/03/17 06:33:49;;;;;;;5.60;2.60;;;13.40;85.80;;;;;;5095346;28;20051;-62
2023/03/17 06:36:15;;;;;;;5.65;2.75;;;13.50;85.90;;;;;;5095968;28;20102;-62
2023/03/17 06:38:42;;;;;;;5.78;2.72;;;12.90;85.50;;;;;;5096030;28;20047;-62
2023/03/17 06:41:08;;;;;;;6.03;2.67;;;13.40;82.60;;;;;;5095855;28;20048;-63
2023/03/17 06:43:35;;;;;;;5.90;2.75;;;13.60;85.70;;;;;;5094299;28;20036;-63
2023/03/17 06:46:00;;;;;;;4.53;2.40;;;13.50;85.80;;;;;;5095778;28;20127;-62
2023/03/17 06:48:27;;;;;;;4.43;2.63;;;13.40;85.60;;;;;;5095436;28;20138;-61
2023/03/17 06:50:53;;;;;;;4.60;2.60;;;;;;;;;;5095720;28;20091;-62
2023/03/17 06:53:20;;;;;;;5.63;2.78;;;13.50;85.60;;;;;;5095469;28;20393;-62
2023/03/17 06:55:46;;;;;;;5.47;2.60;;;13.50;85.50;;;;;;5091295;28;20511;-65
2023/03/17 06:58:14;;;;;;;4.75;2.60;;;13.60;85.60;;;;;;5095505;28;20382;-61
2023/03/17 07:00:40;;;;;;;5.65;2.72;;;13.60;85.60;;;;;;5094855;28;20163;-62
2023/03/17 07:03:06;;;;;;;6.30;2.60;;;13.60;85.60;;;;;;5095164;28;20122;-63
2023/03/17 07:05:32;;;;;;;5.38;2.80;;;13.60;85.80;;;;;;5095206;28;20152;-62
2023/03/17 07:07:58;;;;;;;5.32;3.25;;;13.60;85.50;;;;;;5094710;28;20047;-62
2023/03/17 07:10:25;;;;;;;5.70;2.28;;;13.70;85.50;;;;;;5094656;28;20121;-63
2023/03/17 07:12:51;;;;;;;4.95;2.50;;;13.70;85.50;;;;;;5094688;28;20047;-63
2023/03/17 07:15:17;;;;;;;5.55;2.20;;;;;;;;;;5095307;28;20040;-66
2023/03/17 07:17:45;;;;;;;6.22;2.88;;;13.80;85.50;;;;;;5093942;28;20044;-62
2023/03/17 07:20:12;;;;;;;5.00;2.50;;;13.70;85.50;;;;;;5093491;28;20129;-62
2023/03/17 07:22:39;;;;;;;5.30;2.72;;;13.80;85.60;;;;;;5094474;28;20570;-62
2023/03/17 07:25:05;;;;;;;4.40;2.35;;;;;;;;;;5094404;28;20497;-66
2023/03/17 07:27:31;;;;;;;4.82;2.58;;;13.80;85.60;;;;;;5114869;28;20093;-63
2023/03/17 07:29:59;;;;;;;5.28;2.70;;;13.80;85.50;;;;;;5115129;28;20071;-62
2023/03/17 07:32:24;;;;;;;5.10;2.60;;;13.50;85.30;;;;;;5107063;28;20047;-66
2023/03/17 07:34:50;;;;;;;5.05;2.40;;;14.00;83.90;;;;;;5094140;28;20476;-66
2023/03/17 07:37:16;;;;;;;5.53;3.03;;;13.90;85.50;;;;;;5094272;28;20084;-63
2023/03/17 07:39:43;;;;;;;5.57;2.50;;;;;;;;;;5094317;28;20046;-65
2023/03/17 07:42:10;;;;;;;3.90;2.13;;;14.00;85.30;;;;;;5094430;28;20044;-63
2023/03/17 07:44:38;;;;;;;4.95;2.25;;;14.20;85.30;;;;;;5092856;28;20079;-65
2023/03/17 07:47:04;;;;;;;6.28;2.60;;;14.10;81.30;;;;;;5094232;28;20127;-65
2023/03/17 07:49:31;;;;;;;5.45;2.63;;;;;;;;;;5094446;28;20051;-64
2023/03/17 07:51:57;;;;;;;5.32;2.55;;;14.30;84.90;;;;;;5094666;28;20173;-65
2023/03/17 07:54:24;;;;;;;4.97;2.35;;;14.40;85.00;;;;;;5111791;28;20134;-68
2023/03/17 07:56:50;;;;;;;4.68;2.40;;;14.40;85.00;;;;;;5085208;28;20047;-65
2023/03/17 07:59:17;;;;;;;7.15;3.00;;;14.50;85.00;;;;;;5112435;28;20374;-66
2023/03/17 08:01:43;;;;;;;5.03;2.65;;;14.90;85.20;;;;;;5094141;28;20485;-63
2023/03/17 08:04:11;;;;;;;5.78;2.67;;;;;;;;;;5113015;28;20032;-63
2023/03/17 08:06:40;;;;;;;5.68;3.25;;;14.60;84.70;;;;;;5110939;28;20058;-63
2023/03/17 08:09:07;;;;;;;5.68;2.72;;;15.00;84.70;;;;;;5111722;28;20043;-67
2023/03/17 08:11:34;;;;;;;4.70;2.50;;;15.20;84.70;;;;;;5091022;28;20135;-65
2023/03/17 08:14:01;;;;;;;5.22;2.25;;;15.00;84.50;;;;;;5092872;28;20397;-63
2023/03/17 08:16:28;;;;;;;4.60;2.50;;;15.30;81.40;;;;;;5091669;28;20115;-66
2023/03/17 08:18:54;;;;;;;5.55;2.58;;;15.30;84.30;;;;;;5091867;28;20040;-62
2023/03/17 08:21:20;;;;;;;6.50;3.10;;;15.40;84.30;;;;;;5092547;28;20075;-70
2023/03/17 08:23:47;;;;;;;6.50;2.63;;;;;;;;;;5090441;28;20474;-67
2023/03/17 08:26:13;;;;;;;5.97;2.47;;;;;;;;;;5086700;28;20040;-66
2023/03/17 08:28:39;;;;;;;5.45;2.45;;;15.60;84.10;;;;;;5090587;28;20067;-66
2023/03/17 08:31:13;;;;;;;4.53;2.20;;;15.20;81.00;;;;;;5085663;28;20525;-61
2023/03/17 08:33:40;;;;;;;4.90;2.55;;;15.30;80.70;;;;;;5085706;28;20143;-63
2023/03/17 08:36:08;;;;;;;4.95;2.50;;;15.40;84.50;;;;;;5092074;28;20040;-62
2023/03/17 08:38:37;;;;;;;5.13;2.60;;;15.50;84.70;;;;;;5091953;28;20059;-67
2023/03/17 08:41:05;;;;;;;6.15;2.47;;;15.60;81.90;;;;;;5091312;28;20043;-68
2023/03/17 08:43:32;;;;;;;3.60;2.05;;;15.20;84.70;;;;;;5092978;28;20040;-62
2023/03/17 08:46:24;;;;;;;6.72;2.75;;;15.30;82.00;;;;;;5093271;28;20563;-61
2023/03/17 08:48:50;;;;;;;4.45;2.40;;;15.50;84.70;;;;;;5091766;28;20036;-68
2023/03/17 08:51:16;;;;;;;6.53;2.60;;;15.50;84.50;;;;;;5089892;28;20542;-68
2023/03/17 08:53:43;;;;;;;7.28;3.63;;;15.70;84.70;;;;;;5092414;28;20047;-69
2023/03/17 08:56:09;;;;;;;7.40;3.25;;;15.50;84.20;;;;;;5092627;28;20055;-68
2023/03/17 08:58:36;;;;;;;9.75;3.63;;;15.50;84.90;;;;;;5075261;28;20040;-68
2023/03/17 09:01:02;;;;;;;7.93;3.25;;;15.40;84.90;;;;;;5072851;28;20123;-62
2023/03/17 09:03:28;;;;;;;6.47;3.22;;;15.30;85.00;;;;;;5072855;28;20067;-62
2023/03/17 09:05:54;;;;;;;9.18;3.30;;;15.50;85.20;;;;;;5072796;28;20036;-62
2023/03/17 09:08:20;;;;;;;7.78;3.28;;;15.40;83.50;;;;;;5089325;28;20084;-63
2023/03/17 09:10:46;;;;;;;5.70;3.17;;;15.40;85.20;;;;;;5094084;28;20550;-65
2023/03/17 09:13:12;;;;;;;6.07;3.10;;;15.40;85.20;;;;;;5113237;28;20044;-62
2023/03/17 09:15:38;;;;;;;5.88;3.42;;;15.50;85.30;;;;;;5094602;28;20477;-63
2023/03/17 09:18:05;;;;;;;7.20;3.50;;;15.60;85.40;;;;;;5074450;28;20055;-62
2023/03/17 09:20:31;;;;;;;6.00;3.28;;;15.60;85.40;;;;;;5092545;28;20097;-62
2023/03/17 09:22:57;;;;;;;7.22;3.42;;;15.50;85.30;;;;;;5092973;28;20131;-62
2023/03/17 09:25:23;;;;;;;6.88;3.38;;;15.20;85.20;;;;;;5111790;28;20054;-62
2023/03/17 09:27:50;;;;;;;6.65;3.22;;;15.80;85.50;;;;;;5113156;28;20048;-65
2023/03/17 09:30:16;;;;;;;7.00;3.50;;;15.70;85.10;;;;;;5112717;28;20043;-63
2023/03/17 09:32:44;;;;;;;6.97;3.28;;;15.70;85.30;;;;;;5094002;28;20048;-62
2023/03/17 09:35:10;;;;;;;7.65;3.65;;;;;;;;;;5092706;28;20212;-62
2023/03/17 09:37:36;;;;;;;6.55;3.65;;;15.90;85.40;;;;;;5092669;28;20428;-63
2023/03/17 09:40:08;;;;;;;7.00;3.75;;;16.00;85.40;;;;;;5104161;28;20047;-64
2023/03/17 09:42:59;;;;;;;7.07;3.60;;;16.00;81.10;;;;;;5098550;28;20126;-62
2023/03/17 09:45:32;;;;;;;6.85;3.75;;;15.90;85.30;;;;;;5115656;28;20126;-62
2023/03/17 09:48:07;;;;;;;7.22;3.50;;;16.10;82.40;;;;;;5113077;28;20494;-67
2023/03/17 09:51:03;;;;;;;7.93;3.58;;;16.40;82.90;;;;;;5097836;28;20043;-63
2023/03/17 09:53:46;;;;;;;5.68;3.33;;;16.40;82.70;;;;;;5100475;28;20036;-65
2023/03/17 09:56:14;;;;;;;;;;;16.10;82.70;;;;;;5100011;28;20053;-65
2023/03/17 09:58:43;;;;;;;6.45;3.50;;;16.20;82.20;;;;;;5106693;28;19919;-66
2023/03/17 10:01:09;;;;;;;5.53;3.38;;;16.40;85.40;;;;;;5116743;28;20050;-65
2023/03/17 10:03:36;;;;;;;6.50;3.50;;;16.30;85.20;;;;;;5115433;28;20043;-61
2023/03/17 10:06:34;;;;;;;6.53;3.10;;;16.40;81.20;;;;;;5102950;28;20056;-65
2023/03/17 10:09:11;;;;;;;11.27;3.50;;;16.30;80.70;;;;;;5112495;28;20404;-64
2023/03/17 10:11:42;;;;;;;18.27;4.05;;;16.60;81.90;;;;;;5116163;28;20136;-67
2023/03/17 10:14:22;;;;;;;11.30;3.55;;;;;;;;;;5098085;28;20075;-65
2023/03/17 10:17:00;;;;;;;10.45;3.55;;;16.40;81.70;;;;;;5116158;28;20108;-69
2023/03/17 10:19:29;;;;;;;8.82;3.70;;;16.60;81.50;;;;;;5098571;28;20040;-62
2023/03/17 10:22:44;;;;;;;7.00;3.55;;;16.60;81.80;;;;;;5114833;28;20054;-62
2023/03/17 10:25:15;;;;;;;8.77;4.07;;;16.40;84.40;;;;;;5109872;28;20535;-66
2023/03/17 10:27:41;;;;;;;7.15;3.47;;;16.50;84.40;;;;;;5116229;28;20442;-62
2023/03/17 10:30:18;;;;;;;12.73;3.80;;;;;;;;;;5115708;28;20104;-65
2023/03/17 10:32:44;;;;;;;7.63;3.30;;;16.40;84.40;;;;;;5115865;28;20055;-63
2023/03/17 10:35:10;;;;;;;6.68;3.42;;;16.40;83.20;;;;;;5115501;28;20043;-63
2023/03/17 10:37:36;;;;;;;6.47;3.45;;;16.50;84.70;;;;;;5080448;28;20062;-62
2023/03/17 10:40:04;;;;;;;8.10;3.70;;;16.50;84.80;;;;;;5102546;28;20455;-62
2023/03/17 10:42:31;;;;;;;8.02;3.38;;;16.50;84.60;;;;;;5095647;28;20040;-62
2023/03/17 10:45:00;;;;;;;8.13;3.80;;;16.20;84.50;;;;;;5094383;28;20040;-62
2023/03/17 10:47:37;;;;;;;7.10;3.63;;;16.40;80.20;;;;;;5095065;28;20044;-63
2023/03/17 10:50:22;;;;;;;8.52;3.65;;;16.30;81.10;;;;;;5095083;28;20044;-63
2023/03/17 10:52:59;;;;;;;6.43;3.70;;;16.70;84.70;;;;;;5104167;28;20047;-62
2023/03/17 10:55:31;;;;;;;6.47;3.58;;;16.30;81.50;;;;;;5115386;28;20035;-63
2023/03/17 10:58:01;;;;;;;7.72;3.65;;;16.60;84.70;;;;;;5060264;28;20048;-62
2023/03/17 11:00:28;;;;;;;7.22;3.90;;;16.30;84.50;;;;;;5077123;28;20044;-61
2023/03/17 11:02:56;;;;;;;6.95;3.67;;;16.70;81.40;;;;;;5060237;28;20055;-62
2023/03/17 11:05:25;;;;;;;7.38;3.55;;;16.50;84.60;;;;;;5095120;28;20107;-63
2023/03/17 11:07:57;;;;;;;10.48;4.35;;;16.70;81.50;;;;;;5107305;28;20446;-66
2023/03/17 11:10:25;;;;;;;7.83;4.77;;;16.50;81.40;;;;;;5114587;28;20090;-65
2023/03/17 11:12:57;;;;;;;6.88;3.72;;;;;;;;;;5111621;28;20047;-66
2023/03/17 11:15:24;;;;;;;10.43;3.97;;;;;;;;;;5094573;28;20052;-65
2023/03/17 11:18:00;;;;;;;10.05;4.15;;;16.80;79.80;;;;;;5093683;28;20056;-64
2023/03/17 11:20:45;;;;;;;7.53;4.32;;;16.70;84.40;;;;;;5094441;28;20048;-65
2023/03/17 11:23:23;;;;;;;10.40;4.25;;;16.90;84.50;;;;;;5093926;28;20048;-65
2023/03/17 11:25:56;;;;;;;12.88;4.47;;;16.80;81.40;;;;;;5113415;28;20039;-68
2023/03/17 11:28:25;;;;;;;14.30;4.55;;;17.10;84.30;;;;;;5080568;28;20034;-62
2023/03/17 11:31:01;;;;;;;8.98;4.40;;;16.90;84.10;;;;;;5085235;28;20056;-62
2023/03/17 11:33:47;;;;;;;11.68;4.35;;;17.10;84.20;;;;;;5093273;28;20086;-63
2023/03/17 11:36:42;;;;;;;6.88;4.03;;;16.90;79.80;;;;;;5075199;28;20493;-63
2023/03/17 11:39:12;;;;;;;8.27;4.00;;;17.10;84.10;;;;;;5094238;28;20048;-63
2023/03/17 11:42:07;;;;;;;8.35;4.00;;;17.00;84.00;;;;;;5101534;28;20040;-66
2023/03/17 11:44:57;;;;;;;7.03;4.03;;;17.10;84.20;;;;;;5111198;28;20043;-64
2023/03/17 11:47:30;;;;;;;9.05;4.70;;;17.10;84.40;;;;;;5106407;28;20097;-63
2023/03/17 11:50:07;;;;;;;9.73;4.28;;;17.10;84.40;;;;;;5094039;28;20055;-64
2023/03/17 11:52:49;;;;;;;8.82;4.25;;;17.10;79.90;;;;;;5094060;28;20046;-64
2023/03/17 11:55:25;;;;;;;9.60;4.53;;;17.30;81.60;;;;;;5080214;28;20124;-64
2023/03/17 11:57:59;;;;;;;7.00;4.10;;;17.40;79.80;;;;;;5109172;28;20093;-63
2023/03/17 12:00:36;;;;;;;7.50;4.05;;;17.30;84.10;;;;;;5076275;28;20052;-64
2023/03/17 12:03:16;;;;;;;9.50;4.88;;;17.50;84.20;;;;;;5075472;28;20218;-64
2023/03/17 12:05:44;;;;;;;8.07;3.90;;;17.60;80.80;;;;;;5065639;28;20152;-64
2023/03/17 12:08:35;;;;;;;8.55;4.32;;;17.70;83.70;;;;;;5095977;28;20047;-63
2023/03/17 12:11:01;;;;;;;10.18;4.38;;;17.80;83.50;;;;;;5088392;28;20051;-63
2023/03/17 12:13:44;;;;;;;8.80;4.32;;;17.80;79.10;;;;;;5079179;28;20405;-64
2023/03/17 12:16:38;;;;;;;8.25;4.38;;;17.80;80.40;;;;;;5113853;28;20051;-63
2023/03/17 12:19:20;;;;;;;10.27;4.65;;;18.00;83.30;;;;;;5088270;28;20524;-64
2023/03/17 12:21:56;;;;;;;8.85;5.00;;;17.80;80.40;;;;;;5085292;28;20248;-63
2023/03/17 12:24:25;;;;;;;8.52;4.65;;;17.90;83.30;;;;;;5092393;28;20048;-64
2023/03/17 12:27:02;;;;;;;8.32;4.78;;;17.90;83.30;;;;;;5107400;27;20047;-63
2023/03/17 12:29:36;;;;;;;9.43;4.70;;;18.10;83.50;;;;;;5112409;28;20046;-63
2023/03/17 12:32:07;;;;;;;9.27;4.85;;;17.90;83.30;;;;;;5113750;28;20040;-66
2023/03/17 12:34:44;;;;;;;9.68;4.65;;;18.10;83.50;;;;;;5113813;28;20045;-70
2023/03/17 12:37:10;;;;;;;9.90;4.95;;;18.20;83.40;;;;;;5120982;27;20408;-65
2023/03/17 12:39:36;;;;;;;8.88;5.10;;;18.20;83.40;;;;;;5071113;28;20039;-64
2023/03/17 12:42:20;;;;;;;11.55;5.38;;;18.20;79.30;;;;;;5095384;28;20092;-66
2023/03/17 12:45:15;;;;;;;9.13;4.47;;;18.20;83.60;;;;;;5113164;28;20043;-64
2023/03/17 12:47:46;;;;;;;13.45;5.22;;;18.40;83.70;;;;;;5056373;28;20052;-70
2023/03/17 12:50:33;;;;;;;11.82;5.10;;;18.00;83.40;;;;;;5094205;28;20043;-68
2023/03/17 12:53:26;;;;;;;11.32;4.68;;;18.40;83.60;;;;;;5113524;28;20044;-69
2023/03/17 12:55:52;;;;;;;9.40;5.10;;;18.30;83.40;;;;;;5097117;28;20062;-63
2023/03/17 12:58:38;;;;;;;8.43;5.18;;;18.30;81.80;;;;;;5112177;28;20044;-63
2023/03/17 13:01:22;;;;;;;8.63;4.68;;;18.30;83.60;;;;;;5127860;27;20118;-63
2023/03/17 13:04:00;;;;;;;10.85;5.05;;;18.30;83.60;;;;;;5112249;28;20424;-64
2023/03/17 13:06:28;;;;;;;12.40;5.10;;;18.00;83.50;;;;;;5113042;28;20044;-70
2023/03/17 13:08:54;;;;;;;9.52;5.75;;;18.00;83.60;;;;;;5095028;28;20455;-68
2023/03/17 13:11:28;;;;;;;9.63;4.90;;;18.20;79.00;;;;;;5112355;28;20139;-67